Cozumel International Airport
MMCZ : now visible

Airfield :











YOU CAN JOIN US ON...

 
LOGIN :

Register | Disclaimer

   EN    FR    IT 

 









Legend :    VFR   Marginal VFR   IFR   Intensive IFR   Very Intensive IFR
Visi :
Ceiling :
>= 8 km
>= 3000ft
5 to 8 km
1000 to 3000 ft
1500m to 5 km
500 to 1000 ft
800 to 1500m
200 to 500 ft
< 800m
< 200 ft
Symbols :   Thunderstorms  Fog  Heavy snow  Heavy precipitations  Wind > 20 kt






- Airport Elevation : 15 ft
- IATA code : CZM


MMCZ - Cozumel International

CURRENT METAR :
  • 211041Z 36016KT 7SM SKC 22/16 A3009 RMK CI

EXPIRED METARs :
  • 210941Z 36015KT 7SM SCT250 22/16 A3008 RMK 8/005 SC
  • 210842Z 01011KT 7SM SCT250 22/17 A3009 RMK SLP193 57013 914 8/005 SC

TAF TAF MMCZ
Valid from the 21 at 12:00 until the 22 at 18:00 UTC


211129Z 2112/2218 01016KT P6SM SCT015
FM211800 03018KT P6SM BKN015 BKN250
PROB40 2123/2203 6SM -RA BKN012CB
FM220600 02010KT P6SM SCT015 SCT250
FM221700 02012KT P6SM BKN015 BKN250



MET'MAP, your aeronautical weather chart ! - Copyright ORBIFLY December 2007 - Disclaimer

ORBIFLY MET'MAP TEAM :

Programming & Development : Alexandra Zaïnal
Concept & original design : Baudouin d'Aumeries
Assistance for programming : Marc-Olivier Méhu
Technical & hardware support : Manuel Goepfert

Contact : metmap@orbifly.com




SOURCES & CREDITS :

   NOAA       Earth
Advisory